sensor_id;sensor_type;location;lat;lon;timestamp;temperature;humidity
32787;DHT22;19139;49.372;8.580;2022-08-21T00:01:11;24.50;81.50
32787;DHT22;19139;49.372;8.580;2022-08-21T00:03:39;24.40;81.70
32787;DHT22;19139;49.372;8.580;2022-08-21T00:06:07;24.30;81.80
32787;DHT22;19139;49.372;8.580;2022-08-21T00:08:39;24.30;82.20
32787;DHT22;19139;49.372;8.580;2022-08-21T00:11:06;24.20;82.40
32787;DHT22;19139;49.372;8.580;2022-08-21T00:13:34;24.20;82.70
32787;DHT22;19139;49.372;8.580;2022-08-21T00:16:01;24.00;83.10
32787;DHT22;19139;49.372;8.580;2022-08-21T00:18:28;24.00;82.70
32787;DHT22;19139;49.372;8.580;2022-08-21T00:21:00;24.00;82.90
32787;DHT22;19139;49.372;8.580;2022-08-21T00:23:34;24.00;82.90
32787;DHT22;19139;49.372;8.580;2022-08-21T00:26:00;24.10;82.80
32787;DHT22;19139;49.372;8.580;2022-08-21T00:28:32;24.20;82.50
32787;DHT22;19139;49.372;8.580;2022-08-21T00:30:59;24.20;82.70
32787;DHT22;19139;49.372;8.580;2022-08-21T00:33:31;24.30;82.50
32787;DHT22;19139;49.372;8.580;2022-08-21T00:36:03;24.20;82.60
32787;DHT22;19139;49.372;8.580;2022-08-21T00:38:30;24.10;83.60
32787;DHT22;19139;49.372;8.580;2022-08-21T00:41:04;24.00;82.90
32787;DHT22;19139;49.372;8.580;2022-08-21T00:43:53;24.10;82.80
32787;DHT22;19139;49.372;8.580;2022-08-21T00:46:20;24.20;82.50
32787;DHT22;19139;49.372;8.580;2022-08-21T00:48:51;24.00;82.80
32787;DHT22;19139;49.372;8.580;2022-08-21T00:51:36;23.90;83.20
32787;DHT22;19139;49.372;8.580;2022-08-21T00:54:04;23.80;83.20
32787;DHT22;19139;49.372;8.580;2022-08-21T00:56:38;23.70;83.20
32787;DHT22;19139;49.372;8.580;2022-08-21T00:59:10;23.50;83.10
32787;DHT22;19139;49.372;8.580;2022-08-21T01:01:41;23.50;83.20
32787;DHT22;19139;49.372;8.580;2022-08-21T01:04:13;23.50;83.20
32787;DHT22;19139;49.372;8.580;2022-08-21T01:06:41;23.40;83.20
32787;DHT22;19139;49.372;8.580;2022-08-21T01:09:13;23.40;83.60
32787;DHT22;19139;49.372;8.580;2022-08-21T01:11:40;23.40;83.80
32787;DHT22;19139;49.372;8.580;2022-08-21T01:14:10;23.40;84.00
32787;DHT22;19139;49.372;8.580;2022-08-21T01:16:47;23.40;84.30
32787;DHT22;19139;49.372;8.580;2022-08-21T01:19:21;23.30;84.60
32787;DHT22;19139;49.372;8.580;2022-08-21T01:21:53;23.20;84.80
32787;DHT22;19139;49.372;8.580;2022-08-21T01:24:20;23.20;85.10
32787;DHT22;19139;49.372;8.580;2022-08-21T01:26:52;23.10;85.20
32787;DHT22;19139;49.372;8.580;2022-08-21T01:29:41;23.00;85.10
32787;DHT22;19139;49.372;8.580;2022-08-21T01:32:12;23.00;85.20
32787;DHT22;19139;49.372;8.580;2022-08-21T01:34:42;23.00;85.40
32787;DHT22;19139;49.372;8.580;2022-08-21T01:37:09;22.90;85.50
32787;DHT22;19139;49.372;8.580;2022-08-21T01:39:42;22.90;85.50
32787;DHT22;19139;49.372;8.580;2022-08-21T01:42:10;22.90;85.90
32787;DHT22;19139;49.372;8.580;2022-08-21T01:44:42;22.70;86.10
32787;DHT22;19139;49.372;8.580;2022-08-21T01:47:14;22.70;86.20
32787;DHT22;19139;49.372;8.580;2022-08-21T01:49:43;22.80;86.20
32787;DHT22;19139;49.372;8.580;2022-08-21T01:52:10;22.90;85.90
32787;DHT22;19139;49.372;8.580;2022-08-21T01:54:42;23.00;85.50
32787;DHT22;19139;49.372;8.580;2022-08-21T01:57:10;23.10;85.10
32787;DHT22;19139;49.372;8.580;2022-08-21T01:59:42;23.20;85.10
32787;DHT22;19139;49.372;8.580;2022-08-21T02:02:09;23.20;85.00
32787;DHT22;19139;49.372;8.580;2022-08-21T02:04:35;23.20;84.70
32787;DHT22;19139;49.372;8.580;2022-08-21T02:07:02;23.30;84.40
32787;DHT22;19139;49.372;8.580;2022-08-21T02:09:33;23.30;84.60
32787;DHT22;19139;49.372;8.580;2022-08-21T02:12:00;23.10;84.80
32787;DHT22;19139;49.372;8.580;2022-08-21T02:14:31;22.90;86.30
32787;DHT22;19139;49.372;8.580;2022-08-21T02:17:04;22.80;85.50
32787;DHT22;19139;49.372;8.580;2022-08-21T02:19:36;22.70;85.70
32787;DHT22;19139;49.372;8.580;2022-08-21T02:22:07;22.60;85.80
32787;DHT22;19139;49.372;8.580;2022-08-21T02:24:39;22.60;85.90
32787;DHT22;19139;49.372;8.580;2022-08-21T02:27:11;22.60;85.70
32787;DHT22;19139;49.372;8.580;2022-08-21T02:29:38;22.70;85.40
32787;DHT22;19139;49.372;8.580;2022-08-21T02:32:07;22.70;85.40
32787;DHT22;19139;49.372;8.580;2022-08-21T02:34:34;22.70;85.60
32787;DHT22;19139;49.372;8.580;2022-08-21T02:37:00;22.70;85.50
32787;DHT22;19139;49.372;8.580;2022-08-21T02:39:27;22.70;85.40
32787;DHT22;19139;49.372;8.580;2022-08-21T02:41:53;22.80;85.10
32787;DHT22;19139;49.372;8.580;2022-08-21T02:44:20;22.70;85.40
32787;DHT22;19139;49.372;8.580;2022-08-21T02:46:55;22.80;85.10
32787;DHT22;19139;49.372;8.580;2022-08-21T02:49:22;22.70;85.20
32787;DHT22;19139;49.372;8.580;2022-08-21T02:51:49;22.70;85.20
32787;DHT22;19139;49.372;8.580;2022-08-21T02:54:15;22.60;85.40
32787;DHT22;19139;49.372;8.580;2022-08-21T02:56:42;22.50;85.80
32787;DHT22;19139;49.372;8.580;2022-08-21T02:59:09;22.30;86.30
32787;DHT22;19139;49.372;8.580;2022-08-21T03:01:35;22.30;86.40
32787;DHT22;19139;49.372;8.580;2022-08-21T03:04:03;22.40;86.40
32787;DHT22;19139;49.372;8.580;2022-08-21T03:06:30;22.40;86.40
32787;DHT22;19139;49.372;8.580;2022-08-21T03:08:56;22.50;86.30
32787;DHT22;19139;49.372;8.580;2022-08-21T03:11:23;22.50;86.20
32787;DHT22;19139;49.372;8.580;2022-08-21T03:13:50;22.50;86.20
32787;DHT22;19139;49.372;8.580;2022-08-21T03:16:22;22.60;86.20
32787;DHT22;19139;49.372;8.580;2022-08-21T03:18:53;22.60;86.00
32787;DHT22;19139;49.372;8.580;2022-08-21T03:21:20;22.60;86.00
32787;DHT22;19139;49.372;8.580;2022-08-21T03:23:51;22.60;86.10
32787;DHT22;19139;49.372;8.580;2022-08-21T03:26:20;22.60;86.20
32787;DHT22;19139;49.372;8.580;2022-08-21T03:28:51;22.50;86.30
32787;DHT22;19139;49.372;8.580;2022-08-21T03:31:23;22.40;86.70
32787;DHT22;19139;49.372;8.580;2022-08-21T03:33:50;22.40;86.70
32787;DHT22;19139;49.372;8.580;2022-08-21T03:36:23;22.40;86.60
32787;DHT22;19139;49.372;8.580;2022-08-21T03:38:50;22.30;86.80
32787;DHT22;19139;49.372;8.580;2022-08-21T03:41:22;22.20;87.40
32787;DHT22;19139;49.372;8.580;2022-08-21T03:43:53;22.20;87.40
32787;DHT22;19139;49.372;8.580;2022-08-21T03:46:20;22.10;87.40
32787;DHT22;19139;49.372;8.580;2022-08-21T03:48:51;22.20;87.60
32787;DHT22;19139;49.372;8.580;2022-08-21T03:51:19;22.00;87.90
32787;DHT22;19139;49.372;8.580;2022-08-21T03:53:51;22.00;88.00
32787;DHT22;19139;49.372;8.580;2022-08-21T03:56:18;21.80;88.30
32787;DHT22;19139;49.372;8.580;2022-08-21T03:58:44;21.70;88.90
32787;DHT22;19139;49.372;8.580;2022-08-21T04:01:11;21.60;89.00
32787;DHT22;19139;49.372;8.580;2022-08-21T04:03:43;21.60;89.20
32787;DHT22;19139;49.372;8.580;2022-08-21T04:06:10;21.60;89.40
32787;DHT22;19139;49.372;8.580;2022-08-21T04:08:41;21.50;89.40
32787;DHT22;19139;49.372;8.580;2022-08-21T04:11:09;21.50;89.50
32787;DHT22;19139;49.372;8.580;2022-08-21T04:13:43;21.40;89.80
32787;DHT22;19139;49.372;8.580;2022-08-21T04:16:10;21.50;89.70
32787;DHT22;19139;49.372;8.580;2022-08-21T04:18:42;21.60;89.40
32787;DHT22;19139;49.372;8.580;2022-08-21T04:21:10;21.80;89.00
32787;DHT22;19139;49.372;8.580;2022-08-21T04:23:42;21.80;88.90
32787;DHT22;19139;49.372;8.580;2022-08-21T04:26:09;21.80;88.70
32787;DHT22;19139;49.372;8.580;2022-08-21T04:28:41;21.70;89.10
32787;DHT22;19139;49.372;8.580;2022-08-21T04:31:12;21.50;89.60
32787;DHT22;19139;49.372;8.580;2022-08-21T04:33:39;21.40;89.80
32787;DHT22;19139;49.372;8.580;2022-08-21T04:36:11;21.30;90.00
32787;DHT22;19139;49.372;8.580;2022-08-21T04:38:43;21.20;90.20
32787;DHT22;19139;49.372;8.580;2022-08-21T04:41:10;21.30;90.00
32787;DHT22;19139;49.372;8.580;2022-08-21T04:43:42;21.10;90.20
32787;DHT22;19139;49.372;8.580;2022-08-21T04:46:09;21.10;90.20
32787;DHT22;19139;49.372;8.580;2022-08-21T04:48:41;21.20;90.10
32787;DHT22;19139;49.372;8.580;2022-08-21T04:51:13;21.20;90.20
32787;DHT22;19139;49.372;8.580;2022-08-21T04:53:47;21.30;90.00
32787;DHT22;19139;49.372;8.580;2022-08-21T04:56:26;21.50;89.80
32787;DHT22;19139;49.372;8.580;2022-08-21T04:58:58;21.50;89.40
32787;DHT22;19139;49.372;8.580;2022-08-21T05:01:27;21.60;89.30
32787;DHT22;19139;49.372;8.580;2022-08-21T05:04:02;21.50;89.60
32787;DHT22;19139;49.372;8.580;2022-08-21T05:06:33;21.40;89.90
32787;DHT22;19139;49.372;8.580;2022-08-21T05:09:00;21.40;89.80
32787;DHT22;19139;49.372;8.580;2022-08-21T05:11:29;21.50;89.70
32787;DHT22;19139;49.372;8.580;2022-08-21T05:13:56;21.40;90.00
32787;DHT22;19139;49.372;8.580;2022-08-21T05:16:23;21.40;90.10
32787;DHT22;19139;49.372;8.580;2022-08-21T05:19:03;21.30;90.10
32787;DHT22;19139;49.372;8.580;2022-08-21T05:21:30;21.30;90.30
32787;DHT22;19139;49.372;8.580;2022-08-21T05:24:01;21.20;90.50
32787;DHT22;19139;49.372;8.580;2022-08-21T05:26:34;21.10;90.50
32787;DHT22;19139;49.372;8.580;2022-08-21T05:29:12;21.30;90.50
32787;DHT22;19139;49.372;8.580;2022-08-21T05:31:40;21.40;90.30
32787;DHT22;19139;49.372;8.580;2022-08-21T05:34:13;21.50;90.20
32787;DHT22;19139;49.372;8.580;2022-08-21T05:36:42;21.60;90.20
32787;DHT22;19139;49.372;8.580;2022-08-21T05:39:09;21.60;90.20
32787;DHT22;19139;49.372;8.580;2022-08-21T05:41:35;21.60;90.20
32787;DHT22;19139;49.372;8.580;2022-08-21T05:44:02;21.60;90.20
32787;DHT22;19139;49.372;8.580;2022-08-21T05:46:35;21.60;90.30
32787;DHT22;19139;49.372;8.580;2022-08-21T05:49:02;21.60;90.30
32787;DHT22;19139;49.372;8.580;2022-08-21T05:51:30;21.70;90.20
32787;DHT22;19139;49.372;8.580;2022-08-21T05:53:56;21.80;90.30
32787;DHT22;19139;49.372;8.580;2022-08-21T05:56:23;21.70;90.20
32787;DHT22;19139;49.372;8.580;2022-08-21T05:58:49;21.80;90.20
32787;DHT22;19139;49.372;8.580;2022-08-21T06:01:16;21.80;90.10
32787;DHT22;19139;49.372;8.580;2022-08-21T06:03:43;21.90;90.20
32787;DHT22;19139;49.372;8.580;2022-08-21T06:06:09;21.80;90.30
32787;DHT22;19139;49.372;8.580;2022-08-21T06:08:36;21.80;90.30
32787;DHT22;19139;49.372;8.580;2022-08-21T06:11:09;21.70;90.50
32787;DHT22;19139;49.372;8.580;2022-08-21T06:13:40;21.80;90.40
32787;DHT22;19139;49.372;8.580;2022-08-21T06:16:15;21.80;90.50
32787;DHT22;19139;49.372;8.580;2022-08-21T06:18:47;21.80;90.50
32787;DHT22;19139;49.372;8.580;2022-08-21T06:21:19;21.80;90.60
32787;DHT22;19139;49.372;8.580;2022-08-21T06:23:50;21.80;90.60
32787;DHT22;19139;49.372;8.580;2022-08-21T06:26:17;21.90;90.60
32787;DHT22;19139;49.372;8.580;2022-08-21T06:28:48;21.90;90.70
32787;DHT22;19139;49.372;8.580;2022-08-21T06:31:22;22.00;90.70
32787;DHT22;19139;49.372;8.580;2022-08-21T06:33:50;22.00;90.70
32787;DHT22;19139;49.372;8.580;2022-08-21T06:36:21;22.10;90.50
32787;DHT22;19139;49.372;8.580;2022-08-21T06:38:53;22.10;90.50
32787;DHT22;19139;49.372;8.580;2022-08-21T06:41:22;22.10;90.70
32787;DHT22;19139;49.372;8.580;2022-08-21T06:43:52;22.20;90.30
32787;DHT22;19139;49.372;8.580;2022-08-21T06:46:18;22.30;90.20
32787;DHT22;19139;49.372;8.580;2022-08-21T06:48:45;22.30;90.10
32787;DHT22;19139;49.372;8.580;2022-08-21T06:51:12;22.30;90.10
32787;DHT22;19139;49.372;8.580;2022-08-21T06:53:38;22.30;90.20
32787;DHT22;19139;49.372;8.580;2022-08-21T06:56:10;22.30;90.10
32787;DHT22;19139;49.372;8.580;2022-08-21T06:58:37;22.40;90.10
32787;DHT22;19139;49.372;8.580;2022-08-21T07:01:08;22.40;90.00
32787;DHT22;19139;49.372;8.580;2022-08-21T07:03:42;22.50;89.90
32787;DHT22;19139;49.372;8.580;2022-08-21T07:06:10;22.50;89.90
32787;DHT22;19139;49.372;8.580;2022-08-21T07:08:42;22.60;89.50
32787;DHT22;19139;49.372;8.580;2022-08-21T07:11:21;22.60;89.30
32787;DHT22;19139;49.372;8.580;2022-08-21T07:13:48;22.60;88.80
32787;DHT22;19139;49.372;8.580;2022-08-21T07:16:17;22.70;88.60
32787;DHT22;19139;49.372;8.580;2022-08-21T07:18:49;22.70;88.40
32787;DHT22;19139;49.372;8.580;2022-08-21T07:21:21;22.70;88.30
32787;DHT22;19139;49.372;8.580;2022-08-21T07:23:53;22.80;87.90
32787;DHT22;19139;49.372;8.580;2022-08-21T07:26:23;22.80;87.60
32787;DHT22;19139;49.372;8.580;2022-08-21T07:28:50;22.80;87.60
32787;DHT22;19139;49.372;8.580;2022-08-21T07:31:25;22.80;87.30
32787;DHT22;19139;49.372;8.580;2022-08-21T07:33:52;22.90;87.10
32787;DHT22;19139;49.372;8.580;2022-08-21T07:36:19;22.90;87.10
32787;DHT22;19139;49.372;8.580;2022-08-21T07:38:51;22.90;86.90
32787;DHT22;19139;49.372;8.580;2022-08-21T07:41:26;22.90;86.60
32787;DHT22;19139;49.372;8.580;2022-08-21T07:43:59;23.00;86.60
32787;DHT22;19139;49.372;8.580;2022-08-21T07:46:31;23.00;86.50
32787;DHT22;19139;49.372;8.580;2022-08-21T07:48:58;23.00;86.70
32787;DHT22;19139;49.372;8.580;2022-08-21T07:51:26;23.10;86.70
32787;DHT22;19139;49.372;8.580;2022-08-21T07:53:56;23.10;86.50
32787;DHT22;19139;49.372;8.580;2022-08-21T07:56:24;23.20;86.50
32787;DHT22;19139;49.372;8.580;2022-08-21T07:58:51;23.20;86.40
32787;DHT22;19139;49.372;8.580;2022-08-21T08:01:18;23.30;86.30
32787;DHT22;19139;49.372;8.580;2022-08-21T08:03:50;23.30;86.00
32787;DHT22;19139;49.372;8.580;2022-08-21T08:06:22;23.30;85.90
32787;DHT22;19139;49.372;8.580;2022-08-21T08:08:54;23.40;85.80
32787;DHT22;19139;49.372;8.580;2022-08-21T08:11:25;23.40;85.60
32787;DHT22;19139;49.372;8.580;2022-08-21T08:13:57;23.40;85.50
32787;DHT22;19139;49.372;8.580;2022-08-21T08:16:30;23.50;85.40
32787;DHT22;19139;49.372;8.580;2022-08-21T08:19:02;23.50;85.20
32787;DHT22;19139;49.372;8.580;2022-08-21T08:21:34;23.60;85.20
32787;DHT22;19139;49.372;8.580;2022-08-21T08:24:07;23.60;85.10
32787;DHT22;19139;49.372;8.580;2022-08-21T08:26:39;23.60;85.10
32787;DHT22;19139;49.372;8.580;2022-08-21T08:29:10;23.70;85.10
32787;DHT22;19139;49.372;8.580;2022-08-21T08:31:42;23.70;84.90
32787;DHT22;19139;49.372;8.580;2022-08-21T08:34:08;23.80;84.70
32787;DHT22;19139;49.372;8.580;2022-08-21T08:36:40;23.80;84.60
32787;DHT22;19139;49.372;8.580;2022-08-21T08:39:12;23.80;84.40
32787;DHT22;19139;49.372;8.580;2022-08-21T08:42:07;23.80;85.10
32787;DHT22;19139;49.372;8.580;2022-08-21T08:44:41;23.90;84.30
32787;DHT22;19139;49.372;8.580;2022-08-21T08:47:10;23.90;84.20
32787;DHT22;19139;49.372;8.580;2022-08-21T08:49:53;23.90;84.90
32787;DHT22;19139;49.372;8.580;2022-08-21T08:52:35;23.90;84.10
32787;DHT22;19139;49.372;8.580;2022-08-21T08:55:14;23.90;84.10
32787;DHT22;19139;49.372;8.580;2022-08-21T08:57:48;23.90;84.10
32787;DHT22;19139;49.372;8.580;2022-08-21T09:00:22;23.90;84.10
32787;DHT22;19139;49.372;8.580;2022-08-21T09:02:59;24.00;84.10
32787;DHT22;19139;49.372;8.580;2022-08-21T09:05:48;23.90;84.10
32787;DHT22;19139;49.372;8.580;2022-08-21T09:09:22;23.90;84.10
32787;DHT22;19139;49.372;8.580;2022-08-21T09:11:45;24.00;84.10
32787;DHT22;19139;49.372;8.580;2022-08-21T09:17:09;24.00;84.20
32787;DHT22;19139;49.372;8.580;2022-08-21T09:19:53;24.00;84.30
32787;DHT22;19139;49.372;8.580;2022-08-21T09:22:48;24.00;84.20
32787;DHT22;19139;49.372;8.580;2022-08-21T09:25:25;24.00;84.30
32787;DHT22;19139;49.372;8.580;2022-08-21T09:27:57;24.10;84.10
32787;DHT22;19139;49.372;8.580;2022-08-21T09:30:32;24.10;84.20
32787;DHT22;19139;49.372;8.580;2022-08-21T09:33:03;24.10;84.20
32787;DHT22;19139;49.372;8.580;2022-08-21T09:35:30;24.10;84.10
32787;DHT22;19139;49.372;8.580;2022-08-21T09:38:01;24.10;84.10
32787;DHT22;19139;49.372;8.580;2022-08-21T09:43:18;24.20;84.10
32787;DHT22;19139;49.372;8.580;2022-08-21T09:48:39;24.20;83.90
32787;DHT22;19139;49.372;8.580;2022-08-21T09:51:23;24.20;84.10
32787;DHT22;19139;49.372;8.580;2022-08-21T09:54:14;24.20;84.20
32787;DHT22;19139;49.372;8.580;2022-08-21T09:56:55;24.20;83.80
32787;DHT22;19139;49.372;8.580;2022-08-21T09:59:42;24.20;83.90
32787;DHT22;19139;49.372;8.580;2022-08-21T10:02:30;24.20;84.20
32787;DHT22;19139;49.372;8.580;2022-08-21T10:05:15;24.30;84.30
32787;DHT22;19139;49.372;8.580;2022-08-21T10:07:47;24.30;84.30
32787;DHT22;19139;49.372;8.580;2022-08-21T10:10:30;24.30;84.70
32787;DHT22;19139;49.372;8.580;2022-08-21T10:13:14;24.30;84.30
32787;DHT22;19139;49.372;8.580;2022-08-21T10:16:41;24.30;84.10
32787;DHT22;19139;49.372;8.580;2022-08-21T10:27:37;24.40;84.20
32787;DHT22;19139;49.372;8.580;2022-08-21T10:30:21;24.40;84.10
32787;DHT22;19139;49.372;8.580;2022-08-21T10:35:27;24.40;84.00
32787;DHT22;19139;49.372;8.580;2022-08-21T10:41:37;24.50;83.90
32787;DHT22;19139;49.372;8.580;2022-08-21T10:47:06;24.50;83.80
32787;DHT22;19139;49.372;8.580;2022-08-21T10:49:58;24.50;83.50
32787;DHT22;19139;49.372;8.580;2022-08-21T10:55:14;24.60;83.60
32787;DHT22;19139;49.372;8.580;2022-08-21T10:57:56;24.60;83.50
32787;DHT22;19139;49.372;8.580;2022-08-21T11:00:41;24.60;83.50
32787;DHT22;19139;49.372;8.580;2022-08-21T11:03:17;24.60;83.50
32787;DHT22;19139;49.372;8.580;2022-08-21T11:05:54;24.60;83.50
32787;DHT22;19139;49.372;8.580;2022-08-21T11:08:32;24.60;83.20
32787;DHT22;19139;49.372;8.580;2022-08-21T11:14:00;24.70;83.20
32787;DHT22;19139;49.372;8.580;2022-08-21T11:16:46;24.70;83.20
32787;DHT22;19139;49.372;8.580;2022-08-21T11:19:53;24.70;83.30
32787;DHT22;19139;49.372;8.580;2022-08-21T11:22:32;24.70;83.40
32787;DHT22;19139;49.372;8.580;2022-08-21T11:25:11;24.70;83.30
32787;DHT22;19139;49.372;8.580;2022-08-21T11:28:02;24.70;83.30
32787;DHT22;19139;49.372;8.580;2022-08-21T11:30:47;24.70;83.30
32787;DHT22;19139;49.372;8.580;2022-08-21T11:39:01;24.70;83.70
32787;DHT22;19139;49.372;8.580;2022-08-21T11:41:39;24.80;83.10
32787;DHT22;19139;49.372;8.580;2022-08-21T11:47:39;24.80;83.10
32787;DHT22;19139;49.372;8.580;2022-08-21T11:50:20;24.80;83.10
32787;DHT22;19139;49.372;8.580;2022-08-21T11:53:17;24.80;83.10
32787;DHT22;19139;49.372;8.580;2022-08-21T11:58:32;24.80;83.00
32787;DHT22;19139;49.372;8.580;2022-08-21T12:01:28;24.80;82.90
32787;DHT22;19139;49.372;8.580;2022-08-21T12:04:08;24.80;82.90
32787;DHT22;19139;49.372;8.580;2022-08-21T12:06:42;24.80;82.90
32787;DHT22;19139;49.372;8.580;2022-08-21T12:09:27;24.80;82.80
32787;DHT22;19139;49.372;8.580;2022-08-21T12:12:23;24.80;82.80
32787;DHT22;19139;49.372;8.580;2022-08-21T12:17:40;24.80;82.70
32787;DHT22;19139;49.372;8.580;2022-08-21T12:20:41;24.90;82.70
32787;DHT22;19139;49.372;8.580;2022-08-21T12:23:23;24.90;82.70
32787;DHT22;19139;49.372;8.580;2022-08-21T12:26:19;24.90;82.70
32787;DHT22;19139;49.372;8.580;2022-08-21T12:29:15;24.90;82.70
32787;DHT22;19139;49.372;8.580;2022-08-21T12:32:25;24.90;83.50
32787;DHT22;19139;49.372;8.580;2022-08-21T12:34:52;24.90;82.70
32787;DHT22;19139;49.372;8.580;2022-08-21T12:37:28;24.90;82.70
32787;DHT22;19139;49.372;8.580;2022-08-21T12:39:58;24.90;82.60
32787;DHT22;19139;49.372;8.580;2022-08-21T12:42:41;24.90;82.70
32787;DHT22;19139;49.372;8.580;2022-08-21T12:45:31;24.90;82.60
32787;DHT22;19139;49.372;8.580;2022-08-21T12:48:27;25.00;82.60
32787;DHT22;19139;49.372;8.580;2022-08-21T12:51:12;25.00;82.60
32787;DHT22;19139;49.372;8.580;2022-08-21T12:56:19;25.00;82.60
32787;DHT22;19139;49.372;8.580;2022-08-21T12:58:48;25.00;82.60
32787;DHT22;19139;49.372;8.580;2022-08-21T13:01:21;25.00;82.50
32787;DHT22;19139;49.372;8.580;2022-08-21T13:03:56;25.00;82.50
32787;DHT22;19139;49.372;8.580;2022-08-21T13:06:37;25.00;82.50
32787;DHT22;19139;49.372;8.580;2022-08-21T13:09:12;25.00;82.50
32787;DHT22;19139;49.372;8.580;2022-08-21T13:11:46;25.00;82.50
32787;DHT22;19139;49.372;8.580;2022-08-21T13:16:55;25.00;82.50
32787;DHT22;19139;49.372;8.580;2022-08-21T13:19:23;25.00;82.40
32787;DHT22;19139;49.372;8.580;2022-08-21T13:21:50;25.00;82.30
32787;DHT22;19139;49.372;8.580;2022-08-21T13:24:23;25.00;82.30
32787;DHT22;19139;49.372;8.580;2022-08-21T13:27:23;25.10;82.30
32787;DHT22;19139;49.372;8.580;2022-08-21T13:30:05;25.00;82.10
32787;DHT22;19139;49.372;8.580;2022-08-21T13:32:35;25.10;82.30
32787;DHT22;19139;49.372;8.580;2022-08-21T13:35:22;25.10;82.20
32787;DHT22;19139;49.372;8.580;2022-08-21T13:37:51;25.10;82.20
32787;DHT22;19139;49.372;8.580;2022-08-21T13:40:26;25.10;82.10
32787;DHT22;19139;49.372;8.580;2022-08-21T13:42:54;25.10;82.10
32787;DHT22;19139;49.372;8.580;2022-08-21T13:45:27;25.10;82.10
32787;DHT22;19139;49.372;8.580;2022-08-21T13:48:03;25.10;82.00
32787;DHT22;19139;49.372;8.580;2022-08-21T13:50:36;25.10;82.00
32787;DHT22;19139;49.372;8.580;2022-08-21T13:53:06;25.10;82.00
32787;DHT22;19139;49.372;8.580;2022-08-21T13:55:41;25.10;82.00
32787;DHT22;19139;49.372;8.580;2022-08-21T13:58:40;25.20;82.10
32787;DHT22;19139;49.372;8.580;2022-08-21T14:01:23;25.20;82.00
32787;DHT22;19139;49.372;8.580;2022-08-21T14:04:07;25.20;81.90
32787;DHT22;19139;49.372;8.580;2022-08-21T14:06:36;25.20;82.00
32787;DHT22;19139;49.372;8.580;2022-08-21T14:09:32;25.20;82.00
32787;DHT22;19139;49.372;8.580;2022-08-21T14:12:13;25.20;82.00
32787;DHT22;19139;49.372;8.580;2022-08-21T14:14:46;25.20;81.90
32787;DHT22;19139;49.372;8.580;2022-08-21T14:17:29;25.20;81.90
32787;DHT22;19139;49.372;8.580;2022-08-21T14:19:59;25.20;82.00
32787;DHT22;19139;49.372;8.580;2022-08-21T14:25:29;25.20;81.90
32787;DHT22;19139;49.372;8.580;2022-08-21T14:28:15;25.20;81.90
32787;DHT22;19139;49.372;8.580;2022-08-21T14:30:49;25.20;81.90
32787;DHT22;19139;49.372;8.580;2022-08-21T14:33:28;25.30;82.00
32787;DHT22;19139;49.372;8.580;2022-08-21T14:35:55;25.30;82.00
32787;DHT22;19139;49.372;8.580;2022-08-21T14:38:25;25.30;82.00
32787;DHT22;19139;49.372;8.580;2022-08-21T14:40:56;25.30;81.90
32787;DHT22;19139;49.372;8.580;2022-08-21T14:43:26;25.30;81.90
32787;DHT22;19139;49.372;8.580;2022-08-21T14:45:54;25.30;82.00
32787;DHT22;19139;49.372;8.580;2022-08-21T14:48:21;25.30;81.90
32787;DHT22;19139;49.372;8.580;2022-08-21T14:50:48;25.30;81.90
32787;DHT22;19139;49.372;8.580;2022-08-21T14:53:19;25.30;81.90
32787;DHT22;19139;49.372;8.580;2022-08-21T14:55:51;25.30;81.80
32787;DHT22;19139;49.372;8.580;2022-08-21T14:58:40;25.30;81.80
32787;DHT22;19139;49.372;8.580;2022-08-21T15:01:13;25.30;81.80
32787;DHT22;19139;49.372;8.580;2022-08-21T15:03:46;25.30;81.80
32787;DHT22;19139;49.372;8.580;2022-08-21T15:06:19;25.40;81.80
32787;DHT22;19139;49.372;8.580;2022-08-21T15:08:52;25.30;81.80
32787;DHT22;19139;49.372;8.580;2022-08-21T15:11:24;25.40;81.90
32787;DHT22;19139;49.372;8.580;2022-08-21T15:14:18;25.40;81.80
32787;DHT22;19139;49.372;8.580;2022-08-21T15:16:46;25.40;81.80
32787;DHT22;19139;49.372;8.580;2022-08-21T15:19:13;25.40;81.80
32787;DHT22;19139;49.372;8.580;2022-08-21T15:21:45;25.40;81.80
32787;DHT22;19139;49.372;8.580;2022-08-21T15:24:11;25.40;81.80
32787;DHT22;19139;49.372;8.580;2022-08-21T15:26:38;25.40;81.80
32787;DHT22;19139;49.372;8.580;2022-08-21T15:29:10;25.40;81.80
32787;DHT22;19139;49.372;8.580;2022-08-21T15:34:26;25.50;81.90
32787;DHT22;19139;49.372;8.580;2022-08-21T15:36:58;25.50;81.90
32787;DHT22;19139;49.372;8.580;2022-08-21T15:39:30;25.50;81.90
32787;DHT22;19139;49.372;8.580;2022-08-21T15:41:57;25.50;81.90
32787;DHT22;19139;49.372;8.580;2022-08-21T15:44:29;25.50;81.90
32787;DHT22;19139;49.372;8.580;2022-08-21T15:47:00;25.50;81.90
32787;DHT22;19139;49.372;8.580;2022-08-21T15:49:32;25.50;81.90
32787;DHT22;19139;49.372;8.580;2022-08-21T15:52:04;25.50;81.90
32787;DHT22;19139;49.372;8.580;2022-08-21T15:54:35;25.50;81.80
32787;DHT22;19139;49.372;8.580;2022-08-21T15:57:02;25.50;81.90
32787;DHT22;19139;49.372;8.580;2022-08-21T15:59:40;25.50;81.80
32787;DHT22;19139;49.372;8.580;2022-08-21T16:02:19;25.50;81.80
32787;DHT22;19139;49.372;8.580;2022-08-21T16:04:46;25.50;81.80
32787;DHT22;19139;49.372;8.580;2022-08-21T16:07:12;25.50;81.70
32787;DHT22;19139;49.372;8.580;2022-08-21T16:09:39;25.50;81.70
32787;DHT22;19139;49.372;8.580;2022-08-21T16:12:06;25.50;81.70
32787;DHT22;19139;49.372;8.580;2022-08-21T16:14:34;25.50;81.70
32787;DHT22;19139;49.372;8.580;2022-08-21T16:17:06;25.50;81.70
32787;DHT22;19139;49.372;8.580;2022-08-21T16:19:34;25.60;81.70
32787;DHT22;19139;49.372;8.580;2022-08-21T16:22:02;25.60;81.70
32787;DHT22;19139;49.372;8.580;2022-08-21T16:24:34;25.60;81.70
32787;DHT22;19139;49.372;8.580;2022-08-21T16:27:03;25.60;81.70
32787;DHT22;19139;49.372;8.580;2022-08-21T16:29:36;25.60;81.70
32787;DHT22;19139;49.372;8.580;2022-08-21T16:32:05;25.60;81.70
32787;DHT22;19139;49.372;8.580;2022-08-21T16:34:32;25.60;81.70
32787;DHT22;19139;49.372;8.580;2022-08-21T16:36:59;25.60;81.70
32787;DHT22;19139;49.372;8.580;2022-08-21T16:39:26;25.60;81.70
32787;DHT22;19139;49.372;8.580;2022-08-21T16:41:53;25.60;81.60
32787;DHT22;19139;49.372;8.580;2022-08-21T16:44:24;25.60;81.60
32787;DHT22;19139;49.372;8.580;2022-08-21T16:46:55;25.60;81.60
32787;DHT22;19139;49.372;8.580;2022-08-21T16:49:22;25.70;81.70
32787;DHT22;19139;49.372;8.580;2022-08-21T16:51:48;25.70;81.70
32787;DHT22;19139;49.372;8.580;2022-08-21T16:54:20;25.70;81.60
32787;DHT22;19139;49.372;8.580;2022-08-21T16:56:52;25.70;81.60
32787;DHT22;19139;49.372;8.580;2022-08-21T16:59:23;25.70;81.70
32787;DHT22;19139;49.372;8.580;2022-08-21T17:01:55;25.70;81.60
32787;DHT22;19139;49.372;8.580;2022-08-21T17:04:27;25.70;81.60